| time (UTC) | temp C | wind direction | speed KPH | gust KPH | rain 1hr cm | rain 24hr cm | rain mn cm | humidity % | barometer mb |
| 20260510020555 | 23 | 135 | 4.8 | 22.5 | 0.00 | 0.03 | 0.03 | 89 | 1012.4 |
| 20260510020057 | 23 | 81 | 9.7 | 22.5 | 0.00 | 0.03 | 0.03 | 89 | 1012.2 |
| 20260510015556 | 23 | 124 | 4.8 | 12.9 | 0.00 | 0.03 | 0.03 | 89 | 1012.1 |
| 20260510015055 | 23 | 91 | 4.8 | 12.9 | 0.00 | 0.03 | 0.03 | 89 | 1011.9 |
| 20260510014554 | 23 | 94 | 4.8 | 11.3 | 0.00 | 0.03 | 0.03 | 89 | 1011.8 |
| 20260510014055 | 23 | 81 | 3.2 | 9.7 | 0.00 | 0.03 | 0.03 | 89 | 1011.6 |
| 20260510013555 | 23 | 90 | 1.6 | 9.7 | 0.00 | 0.03 | 0.03 | 89 | 1011.7 |
| 20260510013054 | 23 | 78 | 3.2 | 8.0 | 0.00 | 0.03 | 0.03 | 89 | 1011.3 |
| 20260510012556 | 24 | 85 | 3.2 | 11.3 | 0.00 | 0.03 | 0.03 | 89 | 1011.2 |
| 20260510012055 | 24 | 122 | 4.8 | 11.3 | 0.00 | 0.03 | 0.03 | 89 | 1011.4 |
| 20260510011554 | 24 | 106 | 4.8 | 9.7 | 0.00 | 0.03 | 0.03 | 89 | 1011.2 |
| 20260510011054 | 24 | 118 | 4.8 | 11.3 | 0.00 | 0.03 | 0.03 | 89 | 1011.0 |
| 20260510010554 | 24 | 101 | 3.2 | 14.5 | 0.00 | 0.03 | 0.03 | 88 | 1010.8 |
| 20260510010053 | 24 | 159 | 4.8 | 16.1 | 0.00 | 0.03 | 0.03 | 88 | 1010.6 |
| 20260510005555 | 24 | 165 | 6.4 | 16.1 | 0.00 | 0.03 | 0.03 | 88 | 1010.7 |
| 20260510005054 | 24 | 101 | 6.4 | 16.1 | 0.00 | 0.03 | 0.03 | 88 | 1010.8 |
| 20260510004556 | 24 | 129 | 4.8 | 16.1 | 0.00 | 0.03 | 0.03 | 88 | 1010.8 |
| 20260510004055 | 24 | 116 | 6.4 | 16.1 | 0.00 | 0.03 | 0.03 | 88 | 1010.6 |
| 20260510003555 | 24 | 51 | 6.4 | 14.5 | 0.00 | 0.03 | 0.03 | 88 | 1010.4 |
| 20260510003055 | 24 | 73 | 8.0 | 17.7 | 0.00 | 0.03 | 0.03 | 88 | 1010.1 |
| 20260510002556 | 24 | 105 | 9.7 | 19.3 | 0.00 | 0.03 | 0.03 | 88 | 1009.7 |
| 20260510002054 | 24 | 109 | 9.7 | 19.3 | 0.00 | 0.03 | 0.03 | 88 | 1009.7 |
| 20260510001553 | 24 | 116 | 8.0 | 17.7 | 0.00 | 0.03 | 0.03 | 87 | 1009.8 |
| 20260510001055 | 24 | 120 | 8.0 | 17.7 | 0.00 | 0.03 | 0.03 | 87 | 1009.8 |
| 20260510000554 | 24 | 105 | 9.7 | 17.7 | 0.00 | 0.03 | 0.03 | 86 | 1009.7 |
| 20260510000100 | 25 | 119 | 6.4 | 17.7 | 0.00 | 0.03 | 0.03 | 86 | 1009.6 |
| 20260509235557 | 25 | 95 | 6.4 | 20.9 | 0.00 | 0.03 | 0.03 | 86 | 1009.4 |
| 20260509235054 | 25 | 116 | 9.7 | 20.9 | 0.00 | 0.03 | 0.03 | 85 | 1009.5 |
| 20260509234553 | 25 | 82 | 11.3 | 20.9 | 0.00 | 0.03 | 0.03 | 85 | 1009.4 |
| 20260509234055 | 25 | 157 | 8.0 | 20.9 | 0.00 | 0.03 | 0.03 | 84 | 1009.5 |
| 20260509233554 | 25 | 105 | 8.0 | 22.5 | 0.00 | 0.03 | 0.03 | 83 | 1009.5 |
| 20260509233056 | 25 | 116 | 9.7 | 22.5 | 0.00 | 0.03 | 0.03 | 84 | 1009.5 |
| 20260509232555 | 25 | 173 | 11.3 | 22.5 | 0.00 | 0.03 | 0.03 | 83 | 1009.4 |
| 20260509232055 | 25 | 138 | 8.0 | 20.9 | 0.00 | 0.03 | 0.03 | 82 | 1009.6 |
| 20260509231555 | 26 | 114 | 6.4 | 20.9 | 0.00 | 0.03 | 0.03 | 83 | 1009.5 |
| 20260509231054 | 26 | 125 | 9.7 | 20.9 | 0.00 | 0.03 | 0.03 | 83 | 1009.5 |
| 20260509230557 | 26 | 125 | 8.0 | 17.7 | 0.00 | 0.03 | 0.03 | 83 | 1009.4 |
| 20260509230058 | 26 | 111 | 6.4 | 17.7 | 0.00 | 0.03 | 0.03 | 84 | 1009.4 |
| 20260509225555 | 26 | 63 | 4.8 | 12.9 | 0.00 | 0.03 | 0.03 | 83 | 1009.3 |
| 20260509225054 | 26 | 97 | 4.8 | 11.3 | 0.00 | 0.03 | 0.03 | 83 | 1009.2 |
| 20260509224553 | 26 | 113 | 4.8 | 14.5 | 0.00 | 0.03 | 0.03 | 83 | 1009.4 |
| 20260509224054 | 26 | 101 | 4.8 | 14.5 | 0.00 | 0.03 | 0.03 | 82 | 1009.3 |
| 20260509223558 | 26 | 45 | 1.6 | 8.0 | 0.00 | 0.03 | 0.03 | 82 | 1009.3 |
| 20260509223059 | 26 | 132 | 3.2 | 16.1 | 0.00 | 0.03 | 0.03 | 82 | 1009.3 |
| 20260509222555 | 26 | 87 | 3.2 | 16.1 | 0.00 | 0.03 | 0.03 | 81 | 1009.3 |
| 20260509222053 | 26 | 54 | 6.4 | 20.9 | 0.00 | 0.03 | 0.03 | 80 | 1009.1 |
| 20260509221556 | 27 | 63 | 4.8 | 20.9 | 0.00 | 0.03 | 0.03 | 79 | 1009.1 |
| 20260509221055 | 27 | 80 | 6.4 | 20.9 | 0.00 | 0.03 | 0.03 | 79 | 1008.9 |
| 20260509220555 | 27 | 95 | 8.0 | 17.7 | 0.00 | 0.03 | 0.03 | 78 | 1008.7 |
| 20260509220055 | 27 | 139 | 8.0 | 17.7 | 0.00 | 0.03 | 0.03 | 79 | 1008.7 |
| 20260509215554 | 27 | 95 | 6.4 | 16.1 | 0.00 | 0.03 | 0.03 | 79 | 1008.5 |
| 20260509215055 | 27 | 117 | 8.0 | 17.7 | 0.00 | 0.03 | 0.03 | 78 | 1008.3 |
| 20260509214615 | 27 | 111 | 6.4 | 17.7 | 0.00 | 0.03 | 0.03 | 79 | 1008.2 |
| 20260509214055 | 27 | 131 | 6.4 | 17.7 | 0.00 | 0.03 | 0.03 | 79 | 1008.2 |
| 20260509213555 | 27 | 123 | 4.8 | 14.5 | 0.00 | 0.03 | 0.03 | 79 | 1008.2 |
| 20260509213057 | 27 | 71 | 4.8 | 16.1 | 0.00 | 0.03 | 0.03 | 78 | 1008.3 |
| 20260509212555 | 28 | 87 | 6.4 | 17.7 | 0.00 | 0.03 | 0.03 | 78 | 1008.2 |
| 20260509212054 | 28 | 83 | 8.0 | 17.7 | 0.00 | 0.03 | 0.03 | 75 | 1008.3 |
| 20260509211554 | 30 | 71 | 3.2 | 9.7 | 0.00 | 0.03 | 0.03 | 74 | 1008.3 |
| 20260509211058 | 30 | 126 | 4.8 | 9.7 | 0.00 | 0.03 | 0.03 | 75 | 1008.2 |
| 20260509210555 | 29 | 119 | 1.6 | 4.8 | 0.00 | 0.03 | 0.03 | 75 | 1008.2 |
| 20260509210109 | 30 | 101 | 1.6 | 6.4 | 0.00 | 0.03 | 0.03 | 74 | 1008.3 |
| 20260509205554 | 30 | 127 | 1.6 | 6.4 | 0.00 | 0.03 | 0.03 | 73 | 1008.4 |
| 20260509205054 | 30 | 126 | 1.6 | 4.8 | 0.00 | 0.03 | 0.03 | 74 | 1008.2 |
| 20260509204558 | 30 | 120 | 1.6 | 4.8 | 0.00 | 0.03 | 0.03 | 74 | 1008.2 |
| 20260509204054 | 30 | 121 | 1.6 | 4.8 | 0.00 | 0.03 | 0.03 | 76 | 1008.3 |
| 20260509203558 | 30 | 121 | 1.6 | 6.4 | 0.00 | 0.03 | 0.03 | 78 | 1008.5 |
| 20260509203110 | 29 | 148 | 1.6 | 6.4 | 0.00 | 0.03 | 0.03 | 76 | 1008.5 |
| 20260509202555 | 28 | 114 | 1.6 | 4.8 | 0.00 | 0.03 | 0.03 | 78 | 1008.5 |
| 20260509202054 | 28 | 127 | 1.6 | 4.8 | 0.00 | 0.03 | 0.03 | 77 | 1008.5 |
| 20260509201557 | 28 | 126 | 1.6 | 4.8 | 0.00 | 0.03 | 0.03 | 78 | 1008.6 |
| 20260509201055 | 28 | 128 | 0.0 | 3.2 | 0.00 | 0.03 | 0.03 | 77 | 1008.6 |
| 20260509200558 | 28 | 135 | 0.0 | 1.6 | 0.00 | 0.03 | 0.03 | 76 | 1008.7 |
| 20260509200057 | 28 | 178 | 0.0 | 3.2 | 0.00 | 0.03 | 0.03 | 76 | 1008.8 |
| 20260509195554 | 28 | 204 | 0.0 | 3.2 | 0.00 | 0.03 | 0.03 | 77 | 1008.7 |
| 20260509195056 | 28 | 0 | 1.6 | 4.8 | 0.00 | 0.03 | 0.03 | 76 | 1009.0 |
| 20260509194558 | 28 | 0 | 0.0 | 4.8 | 0.00 | 0.03 | 0.03 | 77 | 1008.9 |
| 20260509194054 | 28 | 116 | 1.6 | 4.8 | 0.00 | 0.03 | 0.03 | 78 | 1008.8 |
| 20260509193555 | 28 | 194 | 1.6 | 4.8 | 0.00 | 0.03 | 0.03 | 77 | 1009.0 |
| 20260509193111 | 28 | 153 | 0.0 | 3.2 | 0.00 | 0.03 | 0.03 | 76 | 1009.2 |
| 20260509192557 | 28 | 112 | 1.6 | 3.2 | 0.00 | 0.03 | 0.03 | 75 | 1009.2 |
| 20260509192054 | 28 | 133 | 1.6 | 3.2 | 0.00 | 0.03 | 0.03 | 75 | 1009.1 |
| 20260509191604 | 28 | 0 | 0.0 | 3.2 | 0.00 | 0.03 | 0.03 | 75 | 1009.2 |
| 20260509191057 | 28 | 214 | 0.0 | 3.2 | 0.00 | 0.03 | 0.03 | 81 | 1009.4 |
| 20260509190557 | 28 | 145 | 0.0 | 4.8 | 0.00 | 0.03 | 0.03 | 81 | 1009.4 |
| 20260509190058 | 27 | 194 | 0.0 | 4.8 | 0.00 | 0.03 | 0.03 | 83 | 1009.5 |
| 20260509185556 | 27 | 201 | 0.0 | 3.2 | 0.00 | 0.03 | 0.03 | 83 | 1009.4 |
| 20260509185055 | 27 | 171 | 1.6 | 3.2 | 0.03 | 0.03 | 0.03 | 84 | 1009.5 |
| 20260509184601 | 27 | 119 | 1.6 | 3.2 | 0.03 | 0.03 | 0.03 | 82 | 1009.6 |
| 20260509184054 | 27 | 0 | 0.0 | 3.2 | 0.03 | 0.03 | 0.03 | 84 | 1009.6 |
| 20260509183555 | 27 | 162 | 0.0 | 4.8 | 0.03 | 0.03 | 0.03 | 82 | 1009.5 |
| 20260509183100 | 27 | 0 | 0.0 | 6.4 | 0.03 | 0.03 | 0.03 | 82 | 1009.4 |
| 20260509182557 | 27 | 119 | 3.2 | 6.4 | 0.03 | 0.03 | 0.03 | 81 | 1009.6 |
| 20260509182054 | 28 | 166 | 0.0 | 3.2 | 0.03 | 0.03 | 0.03 | 80 | 1009.7 |
| 20260509181554 | 28 | 267 | 0.0 | 1.6 | 0.03 | 0.03 | 0.03 | 80 | 1009.8 |
| 20260509181055 | 28 | 273 | 0.0 | 1.6 | 0.03 | 0.03 | 0.03 | 79 | 1009.9 |
| 20260509180554 | 28 | 197 | 0.0 | 1.6 | 0.03 | 0.03 | 0.03 | 79 | 1009.9 |
| 20260509180057 | 28 | 0 | 0.0 | 1.6 | 0.03 | 0.03 | 0.03 | 79 | 1010.1 |
| 20260509175554 | 28 | 0 | 0.0 | 1.6 | 0.03 | 0.05 | 0.03 | 78 | 1010.2 |
| 20260509175054 | 28 | 0 | 0.0 | 1.6 | 0.00 | 0.03 | 0.00 | 79 | 1010.2 |
| 20260509174624 | 28 | 0 | 0.0 | 1.6 | 0.00 | 0.03 | 0.00 | 78 | 1010.2 |
| 20260509174056 | 28 | 192 | 0.0 | 1.6 | 0.00 | 0.03 | 0.00 | 78 | 1010.3 |
| 20260509173554 | 28 | 126 | 0.0 | 1.6 | 0.00 | 0.03 | 0.00 | 80 | 1010.4 |
| 20260509173102 | 28 | 127 | 0.0 | 3.2 | 0.00 | 0.03 | 0.00 | 79 | 1010.4 |
| 20260509172557 | 28 | 0 | 0.0 | 3.2 | 0.00 | 0.03 | 0.00 | 79 | 1010.2 |
| 20260509172055 | 28 | 131 | 0.0 | 3.2 | 0.00 | 0.03 | 0.00 | 79 | 1010.4 |
| 20260509171600 | 28 | 186 | 0.0 | 3.2 | 0.00 | 0.03 | 0.00 | 79 | 1010.7 |
| 20260509171054 | 28 | 112 | 0.0 | 4.8 | 0.00 | 0.03 | 0.00 | 79 | 1010.6 |
| 20260509170554 | 28 | 116 | 0.0 | 4.8 | 0.00 | 0.03 | 0.00 | 76 | 1010.6 |
| 20260509170109 | 28 | 216 | 1.6 | 4.8 | 0.00 | 0.03 | 0.00 | 77 | 1010.7 |
| 20260509165556 | 28 | 143 | 0.0 | 3.2 | 0.00 | 0.05 | 0.00 | 80 | 1010.6 |
| 20260509165058 | 27 | 161 | 0.0 | 6.4 | 0.00 | 0.05 | 0.00 | 80 | 1010.5 |
| 20260509164600 | 27 | 147 | 1.6 | 6.4 | 0.00 | 0.05 | 0.00 | 80 | 1010.6 |
| 20260509164058 | 27 | 140 | 1.6 | 6.4 | 0.00 | 0.05 | 0.00 | 79 | 1010.4 |
| 20260509163558 | 28 | 0 | 0.0 | 3.2 | 0.00 | 0.05 | 0.00 | 80 | 1010.4 |
| 20260509163101 | 27 | 0 | 0.0 | 3.2 | 0.00 | 0.05 | 0.00 | 81 | 1010.4 |
| 20260509162556 | 27 | 308 | 0.0 | 3.2 | 0.00 | 0.05 | 0.00 | 82 | 1010.3 |
| 20260509162057 | 27 | 128 | 1.6 | 3.2 | 0.00 | 0.05 | 0.00 | 83 | 1010.6 |
| 20260509161602 | 27 | 0 | 0.0 | 1.6 | 0.00 | 0.05 | 0.00 | 83 | 1010.6 |
| 20260509161059 | 26 | 0 | 0.0 | 1.6 | 0.00 | 0.05 | 0.00 | 85 | 1010.4 |
| 20260509160556 | 26 | 179 | 0.0 | 3.2 | 0.00 | 0.05 | 0.00 | 84 | 1010.3 |
| 20260509160058 | 26 | 212 | 0.0 | 6.4 | 0.00 | 0.05 | 0.00 | 86 | 1010.4 |
| 20260509155557 | 26 | 185 | 0.0 | 6.4 | 0.00 | 0.05 | 0.00 | 86 | 1010.4 |
| 20260509155055 | 26 | 161 | 1.6 | 6.4 | 0.00 | 0.05 | 0.00 | 86 | 1010.4 |
| 20260509154556 | 26 | 147 | 1.6 | 4.8 | 0.00 | 0.05 | 0.00 | 86 | 1010.4 |
| 20260509154055 | 26 | 221 | 0.0 | 4.8 | 0.00 | 0.05 | 0.00 | 87 | 1010.5 |
| 20260509153555 | 26 | 0 | 0.0 | 4.8 | 0.00 | 0.05 | 0.00 | 87 | 1010.6 |
| 20260509153110 | 26 | 154 | 0.0 | 4.8 | 0.00 | 0.05 | 0.00 | 87 | 1010.8 |
| 20260509152556 | 26 | 214 | 1.6 | 3.2 | 0.00 | 0.05 | 0.00 | 86 | 1010.8 |
| 20260509152056 | 26 | 0 | 0.0 | 1.6 | 0.00 | 0.05 | 0.00 | 86 | 1010.9 |
| 20260509151556 | 26 | 132 | 0.0 | 3.2 | 0.00 | 0.05 | 0.00 | 86 | 1011.1 |
| 20260509151101 | 26 | 172 | 0.0 | 3.2 | 0.00 | 0.05 | 0.00 | 86 | 1011.1 |
| 20260509150556 | 26 | 184 | 0.0 | 3.2 | 0.00 | 0.05 | 0.00 | 87 | 1010.9 |
| 20260509150054 | 26 | 249 | 1.6 | 3.2 | 0.00 | 0.05 | 0.00 | 87 | 1010.7 |
| 20260509145556 | 26 | 0 | 0.0 | 3.2 | 0.00 | 0.05 | 0.00 | 86 | 1010.6 |
| 20260509145055 | 26 | 0 | 0.0 | 3.2 | 0.00 | 0.05 | 0.00 | 87 | 1010.7 |
| 20260509144554 | 26 | 0 | 0.0 | 1.6 | 0.00 | 0.05 | 0.00 | 87 | 1010.7 |
| 20260509144055 | 26 | 230 | 0.0 | 4.8 | 0.00 | 0.05 | 0.00 | 88 | 1010.8 |
| 20260509143555 | 26 | 0 | 0.0 | 4.8 | 0.00 | 0.05 | 0.00 | 89 | 1010.8 |
| 20260509143055 | 25 | 121 | 1.6 | 4.8 | 0.00 | 0.05 | 0.00 | 89 | 1010.4 |
| 20260509142558 | 25 | 143 | 0.0 | 3.2 | 0.00 | 0.05 | 0.00 | 90 | 1010.4 |
| 20260509142056 | 25 | 128 | 1.6 | 4.8 | 0.00 | 0.05 | 0.00 | 91 | 1010.3 |
| 20260509141554 | 25 | 167 | 1.6 | 4.8 | 0.00 | 0.05 | 0.00 | 92 | 1010.4 |
| 20260509141100 | 25 | 93 | 0.0 | 3.2 | 0.00 | 0.05 | 0.00 | 93 | 1010.3 |
| 20260509140556 | 25 | 242 | 0.0 | 3.2 | 0.00 | 0.05 | 0.00 | 94 | 1010.1 |
| 20260509140056 | 25 | 0 | 0.0 | 1.6 | 0.00 | 0.05 | 0.00 | 94 | 1010.0 |
| 20260509135556 | 25 | 0 | 0.0 | 0.0 | 0.00 | 0.05 | 0.00 | 95 | 1010.1 |
| 20260509135056 | 24 | 0 | 0.0 | 0.0 | 0.00 | 0.05 | 0.00 | 95 | 1010.2 |
| 20260509134557 | 24 | 0 | 0.0 | 0.0 | 0.00 | 0.05 | 0.00 | 95 | 1010.3 |
| 20260509134054 | 24 | 0 | 0.0 | 0.0 | 0.00 | 0.05 | 0.00 | 95 | 1010.4 |
| 20260509133558 | 24 | 0 | 0.0 | 0.0 | 0.00 | 0.05 | 0.00 | 95 | 1010.5 |
| 20260509133053 | 24 | 0 | 0.0 | 0.0 | 0.00 | 0.05 | 0.00 | 96 | 1010.4 |
| 20260509132555 | 24 | 0 | 0.0 | 0.0 | 0.00 | 0.05 | 0.00 | 95 | 1010.3 |
| 20260509132058 | 24 | 0 | 0.0 | 0.0 | 0.00 | 0.05 | 0.00 | 96 | 1010.3 |
| 20260509131557 | 23 | 0 | 0.0 | 0.0 | 0.00 | 0.05 | 0.00 | 96 | 1010.3 |
| 20260509131054 | 23 | 0 | 0.0 | 0.0 | 0.00 | 0.05 | 0.00 | 96 | 1010.3 |
| 20260509130556 | 23 | 0 | 0.0 | 0.0 | 0.00 | 0.05 | 0.00 | 96 | 1010.3 |
| 20260509130105 | 23 | 0 | 0.0 | 0.0 | 0.00 | 0.05 | 0.00 | 96 | 1010.2 |
| 20260509125556 | 23 | 0 | 0.0 | 0.0 | 0.00 | 0.05 | 0.00 | 96 | 1010.3 |
| 20260509125055 | 23 | 0 | 0.0 | 0.0 | 0.00 | 0.05 | 0.00 | 96 | 1010.3 |
| 20260509124556 | 23 | 0 | 0.0 | 0.0 | 0.00 | 0.05 | 0.00 | 96 | 1010.3 |
| 20260509124058 | 23 | 0 | 0.0 | 0.0 | 0.00 | 0.05 | 0.00 | 96 | 1010.4 |
| 20260509123555 | 23 | 0 | 0.0 | 0.0 | 0.00 | 0.05 | 0.00 | 96 | 1010.4 |
| 20260509123053 | 23 | 0 | 0.0 | 0.0 | 0.00 | 0.05 | 0.00 | 96 | 1010.3 |
| 20260509122554 | 23 | 0 | 0.0 | 0.0 | 0.00 | 0.05 | 0.00 | 96 | 1010.2 |
| 20260509122054 | 23 | 0 | 0.0 | 0.0 | 0.00 | 0.05 | 0.00 | 96 | 1010.2 |
| 20260509121614 | 23 | 0 | 0.0 | 0.0 | 0.00 | 0.05 | 0.00 | 96 | 1010.4 |
| 20260509121055 | 23 | 0 | 0.0 | 0.0 | 0.00 | 0.05 | 0.00 | 96 | 1010.4 |
| 20260509120557 | 23 | 0 | 0.0 | 0.0 | 0.00 | 0.05 | 0.00 | 96 | 1010.1 |
| 20260509120055 | 23 | 0 | 0.0 | 0.0 | 0.00 | 0.05 | 0.00 | 96 | 1010.0 |
| 20260509115554 | 23 | 0 | 0.0 | 0.0 | 0.00 | 0.05 | 0.00 | 96 | 1010.0 |
| 20260509115054 | 23 | 0 | 0.0 | 0.0 | 0.00 | 0.05 | 0.00 | 96 | 1009.8 |
| 20260509114559 | 23 | 0 | 0.0 | 0.0 | 0.00 | 0.05 | 0.00 | 96 | 1010.0 |
| 20260509114054 | 23 | 0 | 0.0 | 0.0 | 0.00 | 0.05 | 0.00 | 96 | 1010.2 |
| 20260509113553 | 23 | 0 | 0.0 | 0.0 | 0.00 | 0.05 | 0.00 | 95 | 1010.5 |
| 20260509113059 | 23 | 0 | 0.0 | 0.0 | 0.00 | 0.05 | 0.00 | 95 | 1010.4 |
| 20260509112555 | 23 | 0 | 0.0 | 0.0 | 0.00 | 0.05 | 0.00 | 95 | 1010.2 |
| 20260509112055 | 23 | 0 | 0.0 | 0.0 | 0.00 | 0.05 | 0.00 | 95 | 1010.4 |
| 20260509111555 | 23 | 0 | 0.0 | 0.0 | 0.00 | 0.05 | 0.00 | 96 | 1010.3 |
| 20260509111054 | 23 | 0 | 0.0 | 0.0 | 0.00 | 0.05 | 0.00 | 96 | 1010.4 |
| 20260509110558 | 23 | 0 | 0.0 | 0.0 | 0.00 | 0.05 | 0.00 | 96 | 1010.4 |
| 20260509105554 | 23 | 0 | 0.0 | 0.0 | 0.00 | 0.05 | 0.00 | 95 | 1010.3 |
| 20260509105055 | 23 | 0 | 0.0 | 0.0 | 0.00 | 0.05 | 0.00 | 95 | 1010.2 |
| 20260509104555 | 23 | 0 | 0.0 | 0.0 | 0.00 | 0.05 | 0.00 | 95 | 1010.2 |
| 20260509104055 | 23 | 0 | 0.0 | 0.0 | 0.00 | 0.05 | 0.00 | 95 | 1010.2 |
| 20260509103556 | 23 | 0 | 0.0 | 0.0 | 0.00 | 0.05 | 0.00 | 95 | 1009.9 |
| 20260509103102 | 23 | 0 | 0.0 | 0.0 | 0.00 | 0.05 | 0.00 | 95 | 1009.6 |
| 20260509102554 | 23 | 0 | 0.0 | 1.6 | 0.00 | 0.05 | 0.00 | 95 | 1009.5 |
| 20260509102054 | 23 | 0 | 0.0 | 1.6 | 0.00 | 0.05 | 0.00 | 95 | 1009.3 |
| 20260509101607 | 23 | 0 | 0.0 | 1.6 | 0.00 | 0.05 | 0.00 | 95 | 1009.4 |
| 20260509101055 | 23 | 0 | 0.0 | 0.0 | 0.00 | 0.05 | 0.00 | 95 | 1009.3 |
| 20260509100555 | 23 | 0 | 0.0 | 1.6 | 0.00 | 0.05 | 0.00 | 95 | 1009.3 |
| 20260509100058 | 23 | 0 | 0.0 | 1.6 | 0.00 | 0.05 | 0.00 | 95 | 1009.1 |
| 20260509095554 | 23 | 176 | 0.0 | 4.8 | 0.00 | 0.05 | 0.00 | 95 | 1008.9 |
| 20260509095054 | 23 | 0 | 0.0 | 4.8 | 0.00 | 0.05 | 0.00 | 95 | 1009.1 |
| 20260509094609 | 23 | 180 | 0.0 | 3.2 | 0.00 | 0.05 | 0.00 | 95 | 1008.9 |
| 20260509094055 | 23 | 0 | 0.0 | 3.2 | 0.00 | 0.05 | 0.00 | 95 | 1008.9 |
| 20260509093557 | 23 | 146 | 1.6 | 3.2 | 0.00 | 0.05 | 0.00 | 95 | 1008.7 |
| 20260509093100 | 23 | 146 | 0.0 | 3.2 | 0.00 | 0.05 | 0.00 | 95 | 1008.9 |
| 20260509092555 | 23 | 0 | 0.0 | 3.2 | 0.00 | 0.05 | 0.00 | 95 | 1009.0 |
| 20260509092058 | 23 | 0 | 0.0 | 3.2 | 0.00 | 0.05 | 0.00 | 95 | 1009.0 |
| 20260509091607 | 23 | 0 | 0.0 | 4.8 | 0.00 | 0.05 | 0.00 | 95 | 1008.9 |
| 20260509091054 | 23 | 126 | 1.6 | 4.8 | 0.00 | 0.05 | 0.00 | 95 | 1009.1 |
| 20260509090557 | 23 | 114 | 0.0 | 0.0 | 0.00 | 0.05 | 0.00 | 95 | 1009.4 |
| 20260509085557 | 23 | 0 | 0.0 | 0.0 | 0.00 | 0.05 | 0.00 | 95 | 1009.5 |
| 20260509085054 | 23 | 0 | 0.0 | 0.0 | 0.00 | 0.05 | 0.00 | 95 | 1009.6 |
| 20260509084601 | 23 | 0 | 0.0 | 0.0 | 0.00 | 0.05 | 0.00 | 95 | 1009.6 |
| 20260509084054 | 23 | 0 | 0.0 | 0.0 | 0.00 | 0.05 | 0.00 | 95 | 1009.6 |
| 20260509083553 | 23 | 0 | 0.0 | 0.0 | 0.00 | 0.05 | 0.00 | 95 | 1009.5 |
| 20260509083102 | 23 | 0 | 0.0 | 0.0 | 0.00 | 0.05 | 0.00 | 95 | 1009.6 |
| 20260509082553 | 23 | 0 | 0.0 | 0.0 | 0.00 | 0.05 | 0.00 | 95 | 1009.7 |
| 20260509082055 | 23 | 0 | 0.0 | 0.0 | 0.00 | 0.05 | 0.00 | 95 | 1009.7 |
| 20260509081559 | 23 | 0 | 0.0 | 0.0 | 0.00 | 0.05 | 0.00 | 95 | 1009.9 |
| 20260509081051 | 23 | 0 | 0.0 | 0.0 | 0.00 | 0.05 | 0.00 | 95 | 1009.8 |
| 20260509080558 | 23 | 0 | 0.0 | 0.0 | 0.00 | 0.05 | 0.00 | 95 | 1009.8 |
| 20260509080100 | 23 | 0 | 0.0 | 0.0 | 0.00 | 0.05 | 0.00 | 94 | 1009.8 |
| 20260509075554 | 23 | 0 | 0.0 | 0.0 | 0.00 | 0.05 | 0.00 | 95 | 1010.1 |
| 20260509075054 | 23 | 0 | 0.0 | 0.0 | 0.00 | 0.05 | 0.00 | 94 | 1010.0 |
| 20260509074555 | 23 | 0 | 0.0 | 0.0 | 0.00 | 0.05 | 0.00 | 95 | 1009.9 |
| 20260509074056 | 23 | 0 | 0.0 | 1.6 | 0.00 | 0.05 | 0.00 | 95 | 1009.9 |
| 20260509073554 | 23 | 0 | 0.0 | 1.6 | 0.00 | 0.05 | 0.00 | 95 | 1009.8 |
| 20260509073055 | 23 | 142 | 0.0 | 3.2 | 0.00 | 0.05 | 0.00 | 94 | 1009.7 |
| 20260509072605 | 23 | 162 | 0.0 | 3.2 | 0.00 | 0.05 | 0.00 | 94 | 1009.7 |
| 20260509072053 | 23 | 181 | 0.0 | 4.8 | 0.00 | 0.05 | 0.00 | 94 | 1009.8 |
| 20260509071556 | 23 | 145 | 0.0 | 6.4 | 0.00 | 0.05 | 0.00 | 95 | 1009.8 |
| 20260509071054 | 23 | 131 | 1.6 | 6.4 | 0.00 | 0.05 | 0.00 | 95 | 1009.8 |
| 20260509070554 | 23 | 118 | 1.6 | 4.8 | 0.00 | 0.05 | 0.00 | 95 | 1009.6 |
| 20260509070057 | 23 | 137 | 1.6 | 6.4 | 0.00 | 0.05 | 0.00 | 95 | 1009.6 |
| 20260509065556 | 23 | 135 | 1.6 | 6.4 | 0.00 | 0.05 | 0.00 | 95 | 1009.4 |
| 20260509065054 | 23 | 126 | 3.2 | 6.4 | 0.00 | 0.05 | 0.00 | 95 | 1009.5 |
| 20260509064555 | 23 | 114 | 1.6 | 9.7 | 0.00 | 0.05 | 0.00 | 95 | 1009.7 |
| 20260509064054 | 23 | 106 | 3.2 | 9.7 | 0.00 | 0.05 | 0.00 | 95 | 1009.7 |
| 20260509063554 | 23 | 107 | 3.2 | 9.7 | 0.00 | 0.05 | 0.00 | 95 | 1009.8 |
| 20260509063100 | 23 | 147 | 3.2 | 6.4 | 0.00 | 0.05 | 0.00 | 95 | 1009.8 |
| 20260509062554 | 23 | 120 | 3.2 | 4.8 | 0.00 | 0.05 | 0.00 | 95 | 1009.8 |
| 20260509062054 | 23 | 126 | 1.6 | 6.4 | 0.00 | 0.05 | 0.00 | 95 | 1009.9 |
| 20260509061555 | 23 | 135 | 1.6 | 6.4 | 0.00 | 0.05 | 0.00 | 95 | 1010.2 |
| 20260509061054 | 23 | 118 | 1.6 | 8.0 | 0.00 | 0.05 | 0.00 | 95 | 1010.2 |
| 20260509060553 | 23 | 131 | 3.2 | 8.0 | 0.00 | 0.05 | 0.00 | 95 | 1010.3 |
| 20260509060106 | 23 | 133 | 3.2 | 6.4 | 0.00 | 0.05 | 0.00 | 94 | 1010.4 |
| 20260509055554 | 23 | 166 | 3.2 | 9.7 | 0.00 | 0.05 | 0.00 | 94 | 1010.3 |
| 20260509055055 | 23 | 133 | 3.2 | 9.7 | 0.00 | 0.05 | 0.00 | 94 | 1010.4 |
| 20260509054603 | 23 | 166 | 1.6 | 4.8 | 0.00 | 0.05 | 0.00 | 94 | 1010.4 |
| 20260509054055 | 23 | 134 | 3.2 | 4.8 | 0.00 | 0.05 | 0.00 | 94 | 1010.5 |
| 20260509053558 | 23 | 140 | 1.6 | 6.4 | 0.00 | 0.05 | 0.00 | 94 | 1010.6 |
| 20260509053119 | 23 | 128 | 1.6 | 6.4 | 0.00 | 0.05 | 0.00 | 94 | 1010.7 |
| 20260509052558 | 23 | 146 | 3.2 | 6.4 | 0.00 | 0.05 | 0.00 | 94 | 1010.6 |
| 20260509052055 | 23 | 121 | 1.6 | 8.0 | 0.00 | 0.05 | 0.00 | 94 | 1010.7 |
| 20260509051556 | 23 | 131 | 3.2 | 8.0 | 0.00 | 0.05 | 0.00 | 94 | 1010.5 |
| 20260509051054 | 23 | 121 | 1.6 | 6.4 | 0.00 | 0.05 | 0.00 | 94 | 1010.6 |
| 20260509050554 | 23 | 135 | 1.6 | 11.3 | 0.00 | 0.05 | 0.00 | 94 | 1010.6 |
| 20260509050057 | 23 | 109 | 3.2 | 11.3 | 0.00 | 0.05 | 0.00 | 94 | 1010.7 |
| 20260509045557 | 23 | 139 | 4.8 | 9.7 | 0.00 | 0.05 | 0.05 | 94 | 1010.8 |
| 20260509045054 | 23 | 102 | 0.0 | 6.4 | 0.00 | 0.05 | 0.05 | 94 | 1010.8 |
| 20260509044636 | 23 | 76 | 1.6 | 8.0 | 0.00 | 0.05 | 0.05 | 94 | 1010.6 |
| 20260509044054 | 23 | 159 | 3.2 | 8.0 | 0.00 | 0.05 | 0.05 | 94 | 1010.5 |
| 20260509043554 | 23 | 152 | 3.2 | 8.0 | 0.00 | 0.05 | 0.05 | 94 | 1010.6 |
| 20260509043138 | 23 | 111 | 1.6 | 8.0 | 0.00 | 0.05 | 0.05 | 94 | 1010.7 |
| 20260509042555 | 23 | 127 | 3.2 | 8.0 | 0.00 | 0.05 | 0.05 | 94 | 1010.6 |
| 20260509042116 | 23 | 124 | 3.2 | 6.4 | 0.00 | 0.05 | 0.05 | 93 | 1010.7 |
| 20260509041555 | 23 | 130 | 0.0 | 3.2 | 0.00 | 0.05 | 0.05 | 93 | 1010.8 |
| 20260509041054 | 23 | 130 | 0.0 | 4.8 | 0.00 | 0.05 | 0.05 | 93 | 1010.8 |
| 20260509040556 | 23 | 137 | 1.6 | 6.4 | 0.00 | 0.05 | 0.05 | 93 | 1010.8 |
| 20260509040054 | 23 | 145 | 1.6 | 6.4 | 0.00 | 0.05 | 0.05 | 93 | 1010.7 |
| 20260509035558 | 23 | 127 | 0.0 | 8.0 | 0.00 | 0.05 | 0.05 | 93 | 1010.6 |
| 20260509035054 | 23 | 124 | 3.2 | 8.0 | 0.00 | 0.05 | 0.05 | 93 | 1010.4 |
| 20260509034553 | 23 | 153 | 1.6 | 4.8 | 0.00 | 0.05 | 0.05 | 93 | 1010.4 |
| 20260509034055 | 23 | 120 | 0.0 | 4.8 | 0.00 | 0.05 | 0.05 | 93 | 1010.5 |
| 20260509033558 | 23 | 134 | 0.0 | 4.8 | 0.00 | 0.05 | 0.05 | 93 | 1010.6 |
| 20260509033054 | 23 | 121 | 0.0 | 3.2 | 0.00 | 0.05 | 0.05 | 93 | 1010.5 |
| 20260509032554 | 23 | 74 | 0.0 | 6.4 | 0.00 | 0.05 | 0.05 | 93 | 1010.1 |
| 20260509032053 | 23 | 80 | 1.6 | 8.0 | 0.00 | 0.05 | 0.05 | 93 | 1010.2 |
| 20260509031600 | 23 | 139 | 3.2 | 8.0 | 0.00 | 0.05 | 0.05 | 92 | 1010.2 |
| 20260509031054 | 23 | 124 | 3.2 | 6.4 | 0.00 | 0.05 | 0.05 | 92 | 1010.3 |
| 20260509030555 | 23 | 138 | 0.0 | 4.8 | 0.00 | 0.05 | 0.05 | 92 | 1010.6 |
| 20260509030110 | 23 | 0 | 1.6 | 6.4 | 0.00 | 0.05 | 0.05 | 92 | 1010.5 |
| 20260509025554 | 23 | 128 | 0.0 | 6.4 | 0.00 | 0.05 | 0.05 | 92 | 1010.4 |
| 20260509025056 | 23 | 132 | 1.6 | 4.8 | 0.00 | 0.05 | 0.05 | 92 | 1010.6 |
| 20260509024554 | 23 | 57 | 1.6 | 4.8 | 0.00 | 0.05 | 0.05 | 92 | 1010.6 |
| 20260509024054 | 23 | 0 | 1.6 | 4.8 | 0.00 | 0.05 | 0.05 | 92 | 1010.4 |
| 20260509023556 | 23 | 92 | 0.0 | 6.4 | 0.00 | 0.05 | 0.05 | 92 | 1010.2 |
| 20260509023058 | 23 | 81 | 1.6 | 6.4 | 0.00 | 0.05 | 0.05 | 92 | 1009.8 |
| 20260509022554 | 23 | 119 | 3.2 | 6.4 | 0.00 | 0.05 | 0.05 | 91 | 1010.1 |
| 20260509022058 | 23 | 120 | 1.6 | 6.4 | 0.00 | 0.05 | 0.05 | 91 | 1010.3 |
| 20260509021554 | 23 | 135 | 3.2 | 8.0 | 0.00 | 0.05 | 0.05 | 91 | 1010.3 |
| 20260509021056 | 23 | 121 | 3.2 | 8.0 | 0.00 | 0.05 | 0.05 | 91 | 1010.2 |